deformed-offering

Nearby METAR Reports

 

KNUQ - Moffett Nas/Mtn, California, USA
Distance from station: N 9mi, 14km
Updated: Mon, 25-Mar-2019 7:56am PDT
Overcast
Overcast
 Wind from SSE
Wind: SSE 12 mph , 19 km/h
Temperature: 55°F , 13°C
Dew Point: 39°F , 4°C
Humidity: 55%
Barometer: 30.06 inHg , 1017.9 hPa
Clouds: Overcast
Visibility: 10 miles , 16 km
Cloud details: Overcast 9000 ft
2019/03/25 14:56 KNUQ 251456Z 16010KT 10SM OVC090 13/04 A3006 RMK AO2 SLP182 T01280044 53004 $
KSJC - San Jose, California, USA
Distance from station: NE 9mi, 14km
Updated: Mon, 25-Mar-2019 7:53am PDT
Overcast
Overcast
 Wind from SE
Wind: SE 12 mph , 19 km/h
Temperature: 52°F , 11°C
Dew Point: 43°F , 6°C
Humidity: 72%
Barometer: 30.08 inHg , 1018.6 hPa
Clouds: Overcast
Visibility: 10 miles , 16 km
Cloud details: Few Clouds 2600 ft
Mostly Cloudy 5500 ft
Overcast 9000 ft
2019/03/25 14:53 KSJC 251453Z 13010KT 10SM FEW026 BKN055 OVC090 11/06 A3008 RMK AO2 SLP185 T01110056 53009
 
KRHV - San Jose/Reid, California, USA
Distance from station: ENE 12mi, 19km
Updated: Mon, 25-Mar-2019 7:47am PDT
Mostly Cloudy
Mostly Cloudy
 Wind from S
Wind: S 8 mph , 13 km/h
Temperature: 54°F , 12°C
Dew Point: 41°F , 5°C
Humidity: 63%
Barometer: 30.06 inHg , 1017.9 hPa
Clouds: Mostly Cloudy
Visibility: 10 miles , 16 km
Cloud details: Partly Cloudy 5000 ft
Mostly Cloudy 10000 ft
2019/03/25 14:47 KRHV 251447Z 17007KT 10SM SCT050 BKN100 12/05 A3006
KPAO - Palo Alto, California, USA
Distance from station: NNW 14mi, 23km
Updated: Mon, 25-Mar-2019 7:47am PDT
Mostly Cloudy
Mostly Cloudy
 Wind from E
Wind: E 8 mph , 13 km/h
Temperature: 52°F , 11°C
Dew Point: 45°F , 7°C
Humidity: 77%
Barometer: 30.06 inHg , 1017.9 hPa
Clouds: Mostly Cloudy
Visibility: 10 miles , 16 km
Cloud details: Few Clouds 3000 ft
Partly Cloudy 8000 ft
Mostly Cloudy 20000 ft
2019/03/25 14:47 KPAO 251447Z 10007KT 10SM FEW030 SCT080 BKN200 11/07 A3006
 
KSQL - San Carlos Airpo, California, USA
Distance from station: NW 21mi, 34km
Updated: Mon, 25-Mar-2019 7:47am PDT
Overcast
Overcast
 Wind from ESE
Wind: ESE 9 mph , 15 km/h, Gust: 20 mph , 31 km/h
Temperature: 57°F , 14°C
Dew Point: 36°F , 2°C
Humidity: 44%
Barometer: 30.05 inHg , 1017.6 hPa
Clouds: Overcast
Visibility: 10 miles , 16 km
Cloud details: Few Clouds 4900 ft
Partly Cloudy 9000 ft
Overcast 11000 ft
2019/03/25 14:47 KSQL 251447Z 12008G17KT 10SM FEW049 SCT090 OVC110 14/02 A3005
KE16 - San Martin, California, USA
Distance from station: ESE 27mi, 43km
Updated: Wed, 20-Mar-2019 5:15pm PDT
NOT Current
Clear
Clear
 Wind from SSW
Wind: SSW 14 mph , 22 km/h
Temperature: 59°F , 15°C
Dew Point: 41°F , 5°C
Humidity: 51%
Barometer: 30.04 inHg , 1017.3 hPa
Clouds: Clear
Visibility: 10 miles , 16 km
2019/03/21 00:15 KE16 210015Z AUTO 21012KT 10SM CLR 15/05 A3004 RMK AO2
 
KWVI - Watsonville, California, USA
Distance from station: SSE 27mi, 44km
Updated: Mon, 25-Mar-2019 7:53am PDT
Clear
Clear
 Wind from NNW
Wind: NNW 3 mph , 6 km/h
Temperature: 46°F , 8°C
Dew Point: 41°F , 5°C
Humidity: 82%
Barometer: 30.12 inHg , 1020 hPa
Clouds: Clear
Visibility: 10 miles , 16 km
2019/03/25 14:53 KWVI 251453Z AUTO 34003KT 10SM CLR 08/05 A3012 RMK AO2 SLP198 T00780050 53007
KHWD - Hayward, California, USA
Distance from station: N 28mi, 44km
Updated: Mon, 25-Mar-2019 7:54am PDT
Overcast
Overcast
 Wind from SE
Wind: SE 14 mph , 22 km/h
Temperature: 63°F , 17°C
Dew Point: 43°F , 6°C
Humidity: 49%
Barometer: 30.04 inHg , 1017.3 hPa
Clouds: Overcast
Visibility: 10 miles , 16 km
Cloud details: Mostly Cloudy 9000 ft
Overcast 12000 ft
2019/03/25 14:54 KHWD 251454Z 13012KT 10SM BKN090 OVC120 17/06 A3004 RMK AO2 SLP182 T01720056 57001
 
KSFO - San Francisco, California, USA
Distance from station: NW 30mi, 49km
Updated: Mon, 25-Mar-2019 7:56am PDT
Overcast
Overcast
 Wind from SSE
Wind: SSE 6 mph , 9 km/h
Temperature: 55°F , 13°C
Dew Point: 39°F , 4°C
Humidity: 55%
Barometer: 30.05 inHg , 1017.6 hPa
Clouds: Overcast
Visibility: 10 miles , 16 km
Cloud details: Partly Cloudy 9500 ft
Overcast 11000 ft
2019/03/25 14:56 KSFO 251456Z 15005KT 10SM SCT095 OVC110 13/04 A3005 RMK AO2 SLP177 T01280044 53009
KHAF - Half Moon Bay, California, USA
Distance from station: WNW 31mi, 50km
Updated: Mon, 25-Mar-2019 8:15am PDT
Overcast
Overcast
 Wind from S
Wind: S 17 mph , 28 km/h, Gust: 26 mph , 43 km/h
Temperature: 54°F , 12°C
Dew Point: 46°F , 8°C
Humidity: 77%
Barometer: 30.08 inHg , 1018.6 hPa
Clouds: Overcast
Visibility: 8 miles , 13 km
Cloud details: Overcast 4000 ft
2019/03/25 15:15 KHAF 251515Z AUTO 18015G23KT 8SM OVC040 12/08 A3008 RMK AO2
 
KOAK - Oakland, California, USA
Distance from station: NNW 31mi, 50km
Updated: Mon, 25-Mar-2019 7:53am PDT
Overcast
Overcast
 Wind from ESE
Wind: ESE 7 mph , 11 km/h
Temperature: 54°F , 12°C
Dew Point: 45°F , 7°C
Humidity: 72%
Barometer: 30.06 inHg , 1017.9 hPa
Clouds: Overcast
Visibility: 10 miles , 16 km
Cloud details: Mostly Cloudy 9000 ft
Overcast 11000 ft
2019/03/25 14:53 KOAK 251453Z 11006KT 10SM BKN090 OVC110 12/07 A3006 RMK AO2 SLP177 T01170072 53002
KLVK - Livermore, California, USA
Distance from station: NNE 31mi, 51km
Updated: Mon, 25-Mar-2019 7:53am PDT
Clear
Clear
 Wind from calm
Wind: Calm
Temperature: 45°F , 7°C
Dew Point: 43°F , 6°C
Humidity: 93%
Barometer: 30.06 inHg , 1017.9 hPa
Clouds: Clear
Visibility: 8 miles , 13 km
2019/03/25 14:53 KLVK 251453Z 00000KT 8SM CLR 07/06 A3006 RMK AO2 SLP180 T00720056 53009
 
KCVH - Hollister Muni, California, USA
Distance from station: SE 42mi, 68km
Updated: Mon, 25-Mar-2019 8:15am PDT
Clear
Clear
 Wind from calm
Wind: Calm
Temperature: 43°F , 6°C
Dew Point: 39°F , 4°C
Humidity: 87%
Barometer: 30.13 inHg , 1020.3 hPa
Clouds: Clear
Visibility: 10 miles , 16 km
2019/03/25 15:15 KCVH 251515Z AUTO 00000KT 10SM CLR 06/04 A3013 RMK A01
KSNS - Salinas, California, USA
Distance from station: SSE 48mi, 77km
Updated: Mon, 25-Mar-2019 7:53am PDT
Clear
Clear
 Wind from SW
Wind: SW 3 mph , 6 km/h
Temperature: 46°F , 8°C
Dew Point: 41°F , 5°C
Humidity: 82%
Barometer: 30.11 inHg , 1019.6 hPa
Clouds: Clear
Visibility: 10 miles , 16 km
2019/03/25 14:53 KSNS 251453Z 23003KT 10SM CLR 08/05 A3011 RMK AO2 SLP205 T00780050 53008
 
KMRY - Monterey, California, USA
Distance from station: SSE 49mi, 78km
Updated: Mon, 25-Mar-2019 7:54am PDT
Clear
Clear
 Wind from ESE
Wind: ESE 5 mph , 7 km/h
Temperature: 46°F , 8°C
Wind Chill: 44°F , 7°C
Dew Point: 39°F , 4°C
Humidity: 76%
Barometer: 30.11 inHg , 1019.6 hPa
Clouds: Clear
Visibility: 10 miles , 16 km
2019/03/25 14:54 KMRY 251454Z 12004KT 10SM CLR 08/04 A3011 RMK AO2 SLP208 T00780044 53007
KCCR - Concord, California, USA
Distance from station: N 50mi, 81km
Updated: Mon, 25-Mar-2019 7:53am PDT
Mostly Cloudy
Mostly Cloudy
 Wind from E
Wind: E 5 mph , 7 km/h
Temperature: 50°F , 10°C
Wind Chill: 48°F , 9°C
Dew Point: 43°F , 6°C
Humidity: 76%
Barometer: 30.04 inHg , 1017.3 hPa
Clouds: Mostly Cloudy
Visibility: 10 miles , 16 km
Cloud details: Mostly Cloudy 12000 ft
2019/03/25 14:53 KCCR 251453Z 10004KT 10SM BKN120 10/06 A3004 RMK AO2 SLP158 T01000056 56001
deformed-offering